sensor_id;sensor_type;location;lat;lon;timestamp;temperature;humidity
22192;DHT22;11261;52.456;10.850;2023-07-31T00:01:31;16.50;99.90
22192;DHT22;11261;52.456;10.850;2023-07-31T00:03:59;16.60;99.90
22192;DHT22;11261;52.456;10.850;2023-07-31T00:06:28;16.70;99.90
22192;DHT22;11261;52.456;10.850;2023-07-31T00:08:56;16.60;99.90
22192;DHT22;11261;52.456;10.850;2023-07-31T00:11:26;16.60;99.90
22192;DHT22;11261;52.456;10.850;2023-07-31T00:13:54;16.80;99.90
22192;DHT22;11261;52.456;10.850;2023-07-31T00:16:22;16.80;99.90
22192;DHT22;11261;52.456;10.850;2023-07-31T00:18:51;16.60;99.90
22192;DHT22;11261;52.456;10.850;2023-07-31T00:21:19;16.50;99.90
22192;DHT22;11261;52.456;10.850;2023-07-31T00:23:47;16.40;99.90
22192;DHT22;11261;52.456;10.850;2023-07-31T00:26:16;16.40;99.90
22192;DHT22;11261;52.456;10.850;2023-07-31T00:28:45;16.40;99.90
22192;DHT22;11261;52.456;10.850;2023-07-31T00:31:14;16.40;99.90
22192;DHT22;11261;52.456;10.850;2023-07-31T00:33:42;16.40;99.90
22192;DHT22;11261;52.456;10.850;2023-07-31T00:36:10;16.50;99.90
22192;DHT22;11261;52.456;10.850;2023-07-31T00:38:38;16.50;99.90
22192;DHT22;11261;52.456;10.850;2023-07-31T00:41:06;16.60;99.90
22192;DHT22;11261;52.456;10.850;2023-07-31T00:43:35;16.50;99.90
22192;DHT22;11261;52.456;10.850;2023-07-31T00:46:05;16.50;99.90
22192;DHT22;11261;52.456;10.850;2023-07-31T00:48:34;16.50;99.90
22192;DHT22;11261;52.456;10.850;2023-07-31T00:51:03;16.60;99.90
22192;DHT22;11261;52.456;10.850;2023-07-31T00:53:31;16.60;99.90
22192;DHT22;11261;52.456;10.850;2023-07-31T00:56:00;16.70;99.90
22192;DHT22;11261;52.456;10.850;2023-07-31T00:58:28;16.60;99.90
22192;DHT22;11261;52.456;10.850;2023-07-31T01:00:57;16.50;99.90
22192;DHT22;11261;52.456;10.850;2023-07-31T01:03:26;16.60;99.90
22192;DHT22;11261;52.456;10.850;2023-07-31T01:06:04;16.60;99.90
22192;DHT22;11261;52.456;10.850;2023-07-31T01:08:39;16.40;99.90
22192;DHT22;11261;52.456;10.850;2023-07-31T01:11:14;16.40;99.90
22192;DHT22;11261;52.456;10.850;2023-07-31T01:13:44;16.30;99.90
22192;DHT22;11261;52.456;10.850;2023-07-31T01:16:12;16.40;99.90
22192;DHT22;11261;52.456;10.850;2023-07-31T01:18:42;16.40;99.90
22192;DHT22;11261;52.456;10.850;2023-07-31T01:21:22;16.20;99.90
22192;DHT22;11261;52.456;10.850;2023-07-31T01:26:40;16.00;99.90
22192;DHT22;11261;52.456;10.850;2023-07-31T01:29:20;16.10;99.90
22192;DHT22;11261;52.456;10.850;2023-07-31T01:31:53;16.30;99.90
22192;DHT22;11261;52.456;10.850;2023-07-31T01:34:23;16.30;99.90
22192;DHT22;11261;52.456;10.850;2023-07-31T01:36:51;16.30;99.90
22192;DHT22;11261;52.456;10.850;2023-07-31T01:39:20;16.20;99.90
22192;DHT22;11261;52.456;10.850;2023-07-31T01:41:50;16.30;99.90
22192;DHT22;11261;52.456;10.850;2023-07-31T01:44:18;16.30;99.90
22192;DHT22;11261;52.456;10.850;2023-07-31T01:46:46;16.40;99.90
22192;DHT22;11261;52.456;10.850;2023-07-31T01:49:15;16.40;99.90
22192;DHT22;11261;52.456;10.850;2023-07-31T01:51:43;16.40;99.90
22192;DHT22;11261;52.456;10.850;2023-07-31T01:54:11;16.40;99.90
22192;DHT22;11261;52.456;10.850;2023-07-31T01:56:39;16.50;99.90
22192;DHT22;11261;52.456;10.850;2023-07-31T01:59:10;16.50;99.90
22192;DHT22;11261;52.456;10.850;2023-07-31T02:01:38;16.60;99.90
22192;DHT22;11261;52.456;10.850;2023-07-31T02:04:06;16.50;99.90
22192;DHT22;11261;52.456;10.850;2023-07-31T02:06:35;16.40;99.90
22192;DHT22;11261;52.456;10.850;2023-07-31T02:09:04;16.50;99.90
22192;DHT22;11261;52.456;10.850;2023-07-31T02:11:32;16.40;99.90
22192;DHT22;11261;52.456;10.850;2023-07-31T02:14:00;16.30;99.90
22192;DHT22;11261;52.456;10.850;2023-07-31T02:16:30;16.10;99.90
22192;DHT22;11261;52.456;10.850;2023-07-31T02:18:58;16.20;99.90
22192;DHT22;11261;52.456;10.850;2023-07-31T02:21:27;16.20;99.90
22192;DHT22;11261;52.456;10.850;2023-07-31T02:23:55;16.10;99.90
22192;DHT22;11261;52.456;10.850;2023-07-31T02:26:24;16.20;99.90
22192;DHT22;11261;52.456;10.850;2023-07-31T02:28:52;16.20;99.90
22192;DHT22;11261;52.456;10.850;2023-07-31T02:31:20;16.30;99.90
22192;DHT22;11261;52.456;10.850;2023-07-31T02:33:50;16.30;99.90
22192;DHT22;11261;52.456;10.850;2023-07-31T02:36:19;16.30;99.90
22192;DHT22;11261;52.456;10.850;2023-07-31T02:38:47;16.30;99.90
22192;DHT22;11261;52.456;10.850;2023-07-31T02:41:15;16.10;99.90
22192;DHT22;11261;52.456;10.850;2023-07-31T02:43:44;16.10;99.90
22192;DHT22;11261;52.456;10.850;2023-07-31T02:46:12;16.10;99.90
22192;DHT22;11261;52.456;10.850;2023-07-31T02:48:41;16.20;99.90
22192;DHT22;11261;52.456;10.850;2023-07-31T02:51:11;16.10;99.90
22192;DHT22;11261;52.456;10.850;2023-07-31T02:53:39;16.20;99.90
22192;DHT22;11261;52.456;10.850;2023-07-31T02:56:07;16.20;99.90
22192;DHT22;11261;52.456;10.850;2023-07-31T02:58:35;16.10;99.90
22192;DHT22;11261;52.456;10.850;2023-07-31T03:01:04;16.10;99.90
22192;DHT22;11261;52.456;10.850;2023-07-31T03:03:32;16.10;99.90
22192;DHT22;11261;52.456;10.850;2023-07-31T03:06:01;16.10;99.90
22192;DHT22;11261;52.456;10.850;2023-07-31T03:08:31;16.00;99.90
22192;DHT22;11261;52.456;10.850;2023-07-31T03:10:59;16.10;99.90
22192;DHT22;11261;52.456;10.850;2023-07-31T03:13:28;16.10;99.90
22192;DHT22;11261;52.456;10.850;2023-07-31T03:15:56;16.10;99.90
22192;DHT22;11261;52.456;10.850;2023-07-31T03:18:24;16.10;99.90
22192;DHT22;11261;52.456;10.850;2023-07-31T03:20:53;16.10;99.90
22192;DHT22;11261;52.456;10.850;2023-07-31T03:23:21;16.10;99.90
22192;DHT22;11261;52.456;10.850;2023-07-31T03:25:57;16.20;99.90
22192;DHT22;11261;52.456;10.850;2023-07-31T03:28:26;16.10;99.90
22192;DHT22;11261;52.456;10.850;2023-07-31T03:30:54;16.10;99.90
22192;DHT22;11261;52.456;10.850;2023-07-31T03:33:22;16.10;99.90
22192;DHT22;11261;52.456;10.850;2023-07-31T03:35:51;16.00;99.90
22192;DHT22;11261;52.456;10.850;2023-07-31T03:38:20;16.10;99.90
22192;DHT22;11261;52.456;10.850;2023-07-31T03:40:48;16.00;99.90
22192;DHT22;11261;52.456;10.850;2023-07-31T03:43:17;15.90;99.90
22192;DHT22;11261;52.456;10.850;2023-07-31T03:45:46;16.00;99.90
22192;DHT22;11261;52.456;10.850;2023-07-31T03:48:14;16.00;99.90
22192;DHT22;11261;52.456;10.850;2023-07-31T03:50:43;16.00;99.90
22192;DHT22;11261;52.456;10.850;2023-07-31T03:53:11;16.00;99.90
22192;DHT22;11261;52.456;10.850;2023-07-31T03:55:39;16.00;99.90
22192;DHT22;11261;52.456;10.850;2023-07-31T03:58:07;15.90;99.90
22192;DHT22;11261;52.456;10.850;2023-07-31T04:00:37;15.90;99.90
22192;DHT22;11261;52.456;10.850;2023-07-31T04:03:05;16.00;99.90
22192;DHT22;11261;52.456;10.850;2023-07-31T04:05:37;16.00;99.90
22192;DHT22;11261;52.456;10.850;2023-07-31T04:08:06;16.00;99.90
22192;DHT22;11261;52.456;10.850;2023-07-31T04:10:34;16.00;99.90
22192;DHT22;11261;52.456;10.850;2023-07-31T04:13:02;16.00;99.90
22192;DHT22;11261;52.456;10.850;2023-07-31T04:15:30;16.00;99.90
22192;DHT22;11261;52.456;10.850;2023-07-31T04:18:00;16.00;99.90
22192;DHT22;11261;52.456;10.850;2023-07-31T04:20:29;16.00;99.90
22192;DHT22;11261;52.456;10.850;2023-07-31T04:22:57;16.10;99.90
22192;DHT22;11261;52.456;10.850;2023-07-31T04:25:25;16.10;99.90
22192;DHT22;11261;52.456;10.850;2023-07-31T04:27:53;16.00;99.90
22192;DHT22;11261;52.456;10.850;2023-07-31T04:30:22;16.10;99.90
22192;DHT22;11261;52.456;10.850;2023-07-31T04:32:50;16.10;99.90
22192;DHT22;11261;52.456;10.850;2023-07-31T04:35:19;16.10;99.90
22192;DHT22;11261;52.456;10.850;2023-07-31T04:37:48;16.10;99.90
22192;DHT22;11261;52.456;10.850;2023-07-31T04:40:16;16.10;99.90
22192;DHT22;11261;52.456;10.850;2023-07-31T04:42:45;16.00;99.90
22192;DHT22;11261;52.456;10.850;2023-07-31T04:45:13;16.00;99.90
22192;DHT22;11261;52.456;10.850;2023-07-31T04:47:42;16.10;99.90
22192;DHT22;11261;52.456;10.850;2023-07-31T04:50:10;16.20;99.90
22192;DHT22;11261;52.456;10.850;2023-07-31T04:52:40;16.10;99.90
22192;DHT22;11261;52.456;10.850;2023-07-31T04:55:08;16.10;99.90
22192;DHT22;11261;52.456;10.850;2023-07-31T04:57:37;16.20;99.90
22192;DHT22;11261;52.456;10.850;2023-07-31T05:00:07;16.20;99.90
22192;DHT22;11261;52.456;10.850;2023-07-31T05:02:35;16.20;99.90
22192;DHT22;11261;52.456;10.850;2023-07-31T05:05:04;16.30;99.90
22192;DHT22;11261;52.456;10.850;2023-07-31T05:07:32;16.30;99.90
22192;DHT22;11261;52.456;10.850;2023-07-31T05:10:02;16.20;99.90
22192;DHT22;11261;52.456;10.850;2023-07-31T05:12:30;16.20;99.90
22192;DHT22;11261;52.456;10.850;2023-07-31T05:14:58;16.30;99.90
22192;DHT22;11261;52.456;10.850;2023-07-31T05:17:27;16.20;99.90
22192;DHT22;11261;52.456;10.850;2023-07-31T05:19:55;16.30;99.90
22192;DHT22;11261;52.456;10.850;2023-07-31T05:22:24;16.30;99.90
22192;DHT22;11261;52.456;10.850;2023-07-31T05:24:52;16.30;99.90
22192;DHT22;11261;52.456;10.850;2023-07-31T05:27:22;16.20;99.90
22192;DHT22;11261;52.456;10.850;2023-07-31T05:29:51;16.20;99.90
22192;DHT22;11261;52.456;10.850;2023-07-31T05:32:19;16.20;99.90
22192;DHT22;11261;52.456;10.850;2023-07-31T05:34:47;16.20;99.90
22192;DHT22;11261;52.456;10.850;2023-07-31T05:37:18;16.20;99.90
22192;DHT22;11261;52.456;10.850;2023-07-31T05:39:47;16.20;99.90
22192;DHT22;11261;52.456;10.850;2023-07-31T05:42:15;16.20;99.90
22192;DHT22;11261;52.456;10.850;2023-07-31T05:44:45;16.30;99.90
22192;DHT22;11261;52.456;10.850;2023-07-31T05:47:13;16.20;99.90
22192;DHT22;11261;52.456;10.850;2023-07-31T05:49:42;16.20;99.90
22192;DHT22;11261;52.456;10.850;2023-07-31T05:52:10;16.20;99.90
22192;DHT22;11261;52.456;10.850;2023-07-31T05:54:39;16.10;99.90
22192;DHT22;11261;52.456;10.850;2023-07-31T05:57:07;16.10;99.90
22192;DHT22;11261;52.456;10.850;2023-07-31T05:59:35;16.10;99.90
22192;DHT22;11261;52.456;10.850;2023-07-31T06:02:06;16.20;99.90
22192;DHT22;11261;52.456;10.850;2023-07-31T06:04:34;16.10;99.90
22192;DHT22;11261;52.456;10.850;2023-07-31T06:07:03;16.00;99.90
22192;DHT22;11261;52.456;10.850;2023-07-31T06:09:31;16.10;99.90
22192;DHT22;11261;52.456;10.850;2023-07-31T06:11:59;16.10;99.90
22192;DHT22;11261;52.456;10.850;2023-07-31T06:14:28;16.00;99.90
22192;DHT22;11261;52.456;10.850;2023-07-31T06:16:56;15.90;99.90
22192;DHT22;11261;52.456;10.850;2023-07-31T06:19:26;15.80;99.90
22192;DHT22;11261;52.456;10.850;2023-07-31T06:21:54;15.90;99.90
22192;DHT22;11261;52.456;10.850;2023-07-31T06:24:22;16.00;99.90
22192;DHT22;11261;52.456;10.850;2023-07-31T06:26:51;16.00;99.90
22192;DHT22;11261;52.456;10.850;2023-07-31T06:29:19;15.80;99.90
22192;DHT22;11261;52.456;10.850;2023-07-31T06:31:47;15.80;99.90
22192;DHT22;11261;52.456;10.850;2023-07-31T06:34:16;15.80;99.90
22192;DHT22;11261;52.456;10.850;2023-07-31T06:36:45;15.80;99.90
22192;DHT22;11261;52.456;10.850;2023-07-31T06:39:13;15.80;99.90
22192;DHT22;11261;52.456;10.850;2023-07-31T06:41:44;15.80;99.90
22192;DHT22;11261;52.456;10.850;2023-07-31T06:44:12;15.80;99.90
22192;DHT22;11261;52.456;10.850;2023-07-31T06:46:40;15.70;99.90
22192;DHT22;11261;52.456;10.850;2023-07-31T06:49:09;15.50;99.90
22192;DHT22;11261;52.456;10.850;2023-07-31T06:51:37;15.70;99.90
22192;DHT22;11261;52.456;10.850;2023-07-31T06:54:08;15.80;99.90
22192;DHT22;11261;52.456;10.850;2023-07-31T06:56:36;15.90;99.90
22192;DHT22;11261;52.456;10.850;2023-07-31T06:59:07;16.10;99.90
22192;DHT22;11261;52.456;10.850;2023-07-31T07:01:35;16.10;99.90
22192;DHT22;11261;52.456;10.850;2023-07-31T07:04:04;16.00;99.90
22192;DHT22;11261;52.456;10.850;2023-07-31T07:06:32;16.10;99.90
22192;DHT22;11261;52.456;10.850;2023-07-31T07:09:00;16.20;99.90
22192;DHT22;11261;52.456;10.850;2023-07-31T07:11:30;16.30;99.90
22192;DHT22;11261;52.456;10.850;2023-07-31T07:13:59;16.50;99.90
22192;DHT22;11261;52.456;10.850;2023-07-31T07:16:28;16.50;99.90
22192;DHT22;11261;52.456;10.850;2023-07-31T07:18:57;16.50;99.90
22192;DHT22;11261;52.456;10.850;2023-07-31T07:21:30;16.60;99.90
22192;DHT22;11261;52.456;10.850;2023-07-31T07:23:59;16.60;99.90
22192;DHT22;11261;52.456;10.850;2023-07-31T07:26:27;16.60;99.90
22192;DHT22;11261;52.456;10.850;2023-07-31T07:28:56;16.60;99.90
22192;DHT22;11261;52.456;10.850;2023-07-31T07:31:27;16.60;99.90
22192;DHT22;11261;52.456;10.850;2023-07-31T07:33:56;16.70;99.90
22192;DHT22;11261;52.456;10.850;2023-07-31T07:36:24;16.70;99.90
22192;DHT22;11261;52.456;10.850;2023-07-31T07:38:52;16.70;99.90
22192;DHT22;11261;52.456;10.850;2023-07-31T07:41:21;16.70;99.90
22192;DHT22;11261;52.456;10.850;2023-07-31T07:43:49;16.80;99.90
22192;DHT22;11261;52.456;10.850;2023-07-31T07:46:19;16.80;99.90
22192;DHT22;11261;52.456;10.850;2023-07-31T07:48:47;16.80;99.90
22192;DHT22;11261;52.456;10.850;2023-07-31T07:51:16;16.80;99.90
22192;DHT22;11261;52.456;10.850;2023-07-31T07:53:44;16.80;99.90
22192;DHT22;11261;52.456;10.850;2023-07-31T07:56:12;16.80;99.90
22192;DHT22;11261;52.456;10.850;2023-07-31T07:58:40;16.80;99.90
22192;DHT22;11261;52.456;10.850;2023-07-31T08:01:08;16.80;99.90
22192;DHT22;11261;52.456;10.850;2023-07-31T08:03:38;16.80;99.90
22192;DHT22;11261;52.456;10.850;2023-07-31T08:06:07;16.90;99.90
22192;DHT22;11261;52.456;10.850;2023-07-31T08:08:36;16.80;99.90
22192;DHT22;11261;52.456;10.850;2023-07-31T08:11:04;16.90;99.90
22192;DHT22;11261;52.456;10.850;2023-07-31T08:13:33;17.00;99.90
22192;DHT22;11261;52.456;10.850;2023-07-31T08:16:03;17.00;99.90
22192;DHT22;11261;52.456;10.850;2023-07-31T08:18:32;16.90;99.90
22192;DHT22;11261;52.456;10.850;2023-07-31T08:21:03;16.90;99.90
22192;DHT22;11261;52.456;10.850;2023-07-31T08:23:31;17.00;99.90
22192;DHT22;11261;52.456;10.850;2023-07-31T08:25:59;17.10;99.90
22192;DHT22;11261;52.456;10.850;2023-07-31T08:28:28;17.60;99.90
22192;DHT22;11261;52.456;10.850;2023-07-31T08:30:56;18.10;99.90
22192;DHT22;11261;52.456;10.850;2023-07-31T08:33:25;18.10;99.90
22192;DHT22;11261;52.456;10.850;2023-07-31T08:35:53;18.20;99.90
22192;DHT22;11261;52.456;10.850;2023-07-31T08:38:23;18.20;99.90
22192;DHT22;11261;52.456;10.850;2023-07-31T08:40:52;18.20;99.90
22192;DHT22;11261;52.456;10.850;2023-07-31T08:43:22;18.00;99.90
22192;DHT22;11261;52.456;10.850;2023-07-31T08:45:53;18.10;99.90
22192;DHT22;11261;52.456;10.850;2023-07-31T08:48:22;18.20;99.90
22192;DHT22;11261;52.456;10.850;2023-07-31T08:50:51;18.10;99.90
22192;DHT22;11261;52.456;10.850;2023-07-31T08:53:20;18.20;99.90
22192;DHT22;11261;52.456;10.850;2023-07-31T08:55:50;18.20;99.90
22192;DHT22;11261;52.456;10.850;2023-07-31T08:58:20;18.30;99.90
22192;DHT22;11261;52.456;10.850;2023-07-31T09:00:50;18.50;99.90
22192;DHT22;11261;52.456;10.850;2023-07-31T09:03:22;18.80;99.90
22192;DHT22;11261;52.456;10.850;2023-07-31T09:05:51;18.80;99.90
22192;DHT22;11261;52.456;10.850;2023-07-31T09:08:22;18.70;99.90
22192;DHT22;11261;52.456;10.850;2023-07-31T09:10:51;18.60;99.90
22192;DHT22;11261;52.456;10.850;2023-07-31T09:13:21;18.60;99.90
22192;DHT22;11261;52.456;10.850;2023-07-31T09:15:50;18.50;99.90
22192;DHT22;11261;52.456;10.850;2023-07-31T09:18:18;18.40;99.90
22192;DHT22;11261;52.456;10.850;2023-07-31T09:21:01;18.50;99.90
22192;DHT22;11261;52.456;10.850;2023-07-31T09:23:40;18.60;99.90
22192;DHT22;11261;52.456;10.850;2023-07-31T09:26:10;18.60;99.90
22192;DHT22;11261;52.456;10.850;2023-07-31T09:28:40;18.50;99.90
22192;DHT22;11261;52.456;10.850;2023-07-31T09:31:09;18.50;99.90
22192;DHT22;11261;52.456;10.850;2023-07-31T09:33:54;18.50;99.90
22192;DHT22;11261;52.456;10.850;2023-07-31T09:36:23;18.50;99.90
22192;DHT22;11261;52.456;10.850;2023-07-31T09:38:51;18.40;99.90
22192;DHT22;11261;52.456;10.850;2023-07-31T09:41:21;18.30;99.90
22192;DHT22;11261;52.456;10.850;2023-07-31T09:43:53;18.40;99.90
22192;DHT22;11261;52.456;10.850;2023-07-31T09:46:22;18.50;99.90
22192;DHT22;11261;52.456;10.850;2023-07-31T09:49:06;18.50;99.90
22192;DHT22;11261;52.456;10.850;2023-07-31T09:51:36;18.60;99.90
22192;DHT22;11261;52.456;10.850;2023-07-31T09:54:10;18.60;99.90
22192;DHT22;11261;52.456;10.850;2023-07-31T09:56:43;18.50;99.90
22192;DHT22;11261;52.456;10.850;2023-07-31T09:59:13;18.60;99.90
22192;DHT22;11261;52.456;10.850;2023-07-31T10:01:42;18.50;99.90
22192;DHT22;11261;52.456;10.850;2023-07-31T10:04:12;18.60;99.90
22192;DHT22;11261;52.456;10.850;2023-07-31T10:06:42;18.60;99.90
22192;DHT22;11261;52.456;10.850;2023-07-31T10:09:12;18.50;99.90
22192;DHT22;11261;52.456;10.850;2023-07-31T10:11:53;18.50;99.90
22192;DHT22;11261;52.456;10.850;2023-07-31T10:14:24;18.50;99.90
22192;DHT22;11261;52.456;10.850;2023-07-31T10:16:54;18.50;99.90
22192;DHT22;11261;52.456;10.850;2023-07-31T10:19:23;18.60;99.90
22192;DHT22;11261;52.456;10.850;2023-07-31T10:21:51;18.50;99.90
22192;DHT22;11261;52.456;10.850;2023-07-31T10:24:20;18.50;99.90
22192;DHT22;11261;52.456;10.850;2023-07-31T10:26:52;18.40;99.90
22192;DHT22;11261;52.456;10.850;2023-07-31T10:29:22;18.40;99.90
22192;DHT22;11261;52.456;10.850;2023-07-31T10:31:51;18.30;99.90
22192;DHT22;11261;52.456;10.850;2023-07-31T10:34:20;18.40;99.90
22192;DHT22;11261;52.456;10.850;2023-07-31T10:36:48;18.50;99.90
22192;DHT22;11261;52.456;10.850;2023-07-31T10:39:36;18.50;99.90
22192;DHT22;11261;52.456;10.850;2023-07-31T10:42:12;18.40;99.90
22192;DHT22;11261;52.456;10.850;2023-07-31T10:44:44;18.40;99.90
22192;DHT22;11261;52.456;10.850;2023-07-31T10:47:14;18.40;99.90
22192;DHT22;11261;52.456;10.850;2023-07-31T10:49:45;18.60;99.90
22192;DHT22;11261;52.456;10.850;2023-07-31T10:52:19;18.60;99.90
22192;DHT22;11261;52.456;10.850;2023-07-31T10:55:15;18.50;99.90
22192;DHT22;11261;52.456;10.850;2023-07-31T10:57:47;18.50;99.90
22192;DHT22;11261;52.456;10.850;2023-07-31T11:00:20;18.80;99.90
22192;DHT22;11261;52.456;10.850;2023-07-31T11:03:03;18.60;99.90
22192;DHT22;11261;52.456;10.850;2023-07-31T11:05:49;18.90;99.90
22192;DHT22;11261;52.456;10.850;2023-07-31T11:08:21;18.90;99.90
22192;DHT22;11261;52.456;10.850;2023-07-31T11:11:04;19.20;99.90
22192;DHT22;11261;52.456;10.850;2023-07-31T11:13:40;19.00;99.90
22192;DHT22;11261;52.456;10.850;2023-07-31T11:16:09;19.20;99.90
22192;DHT22;11261;52.456;10.850;2023-07-31T11:18:39;19.20;99.90
22192;DHT22;11261;52.456;10.850;2023-07-31T11:21:08;19.20;99.90
22192;DHT22;11261;52.456;10.850;2023-07-31T11:23:37;19.30;99.90
22192;DHT22;11261;52.456;10.850;2023-07-31T11:26:06;19.40;99.90
22192;DHT22;11261;52.456;10.850;2023-07-31T11:28:36;19.40;99.90
22192;DHT22;11261;52.456;10.850;2023-07-31T11:31:05;19.60;99.90
22192;DHT22;11261;52.456;10.850;2023-07-31T11:33:37;19.80;99.90
22192;DHT22;11261;52.456;10.850;2023-07-31T11:36:05;19.90;99.90
22192;DHT22;11261;52.456;10.850;2023-07-31T11:38:34;20.10;99.90
22192;DHT22;11261;52.456;10.850;2023-07-31T11:41:04;20.10;99.90
22192;DHT22;11261;52.456;10.850;2023-07-31T11:43:32;20.20;99.90
22192;DHT22;11261;52.456;10.850;2023-07-31T11:46:02;20.30;99.90
22192;DHT22;11261;52.456;10.850;2023-07-31T11:48:32;20.60;99.90
22192;DHT22;11261;52.456;10.850;2023-07-31T11:51:03;20.80;99.90
22192;DHT22;11261;52.456;10.850;2023-07-31T11:53:36;20.80;99.90
22192;DHT22;11261;52.456;10.850;2023-07-31T11:56:08;20.90;99.90
22192;DHT22;11261;52.456;10.850;2023-07-31T11:58:39;21.10;99.90
22192;DHT22;11261;52.456;10.850;2023-07-31T12:01:10;21.10;99.90
22192;DHT22;11261;52.456;10.850;2023-07-31T12:03:40;21.30;99.90
22192;DHT22;11261;52.456;10.850;2023-07-31T12:06:10;21.40;99.90
22192;DHT22;11261;52.456;10.850;2023-07-31T12:08:38;21.30;99.90
22192;DHT22;11261;52.456;10.850;2023-07-31T12:11:08;21.30;99.90
22192;DHT22;11261;52.456;10.850;2023-07-31T12:13:37;21.30;99.90
22192;DHT22;11261;52.456;10.850;2023-07-31T12:16:05;21.30;99.90
22192;DHT22;11261;52.456;10.850;2023-07-31T12:18:36;21.20;99.90
22192;DHT22;11261;52.456;10.850;2023-07-31T12:21:08;21.10;99.90
22192;DHT22;11261;52.456;10.850;2023-07-31T12:23:38;21.10;99.90
22192;DHT22;11261;52.456;10.850;2023-07-31T12:26:11;21.10;99.90
22192;DHT22;11261;52.456;10.850;2023-07-31T12:28:41;21.10;99.90
22192;DHT22;11261;52.456;10.850;2023-07-31T12:31:11;21.10;99.90
22192;DHT22;11261;52.456;10.850;2023-07-31T12:33:41;21.20;99.90
22192;DHT22;11261;52.456;10.850;2023-07-31T12:36:11;21.20;99.90
22192;DHT22;11261;52.456;10.850;2023-07-31T12:38:39;21.40;99.90
22192;DHT22;11261;52.456;10.850;2023-07-31T12:41:08;21.10;99.90
22192;DHT22;11261;52.456;10.850;2023-07-31T12:43:38;21.20;99.90
22192;DHT22;11261;52.456;10.850;2023-07-31T12:46:07;21.20;99.90
22192;DHT22;11261;52.456;10.850;2023-07-31T12:48:36;21.20;99.90
22192;DHT22;11261;52.456;10.850;2023-07-31T12:51:06;21.20;99.90
22192;DHT22;11261;52.456;10.850;2023-07-31T12:53:35;21.10;99.90
22192;DHT22;11261;52.456;10.850;2023-07-31T12:56:03;20.90;99.90
22192;DHT22;11261;52.456;10.850;2023-07-31T12:58:32;21.00;99.90
22192;DHT22;11261;52.456;10.850;2023-07-31T13:01:00;21.00;99.90
22192;DHT22;11261;52.456;10.850;2023-07-31T13:03:29;20.90;99.90
22192;DHT22;11261;52.456;10.850;2023-07-31T13:05:57;21.00;99.90
22192;DHT22;11261;52.456;10.850;2023-07-31T13:08:27;20.90;99.90
22192;DHT22;11261;52.456;10.850;2023-07-31T13:10:55;21.00;99.90
22192;DHT22;11261;52.456;10.850;2023-07-31T13:13:23;21.00;99.90
22192;DHT22;11261;52.456;10.850;2023-07-31T13:15:52;20.90;99.90
22192;DHT22;11261;52.456;10.850;2023-07-31T13:18:20;20.80;99.90
22192;DHT22;11261;52.456;10.850;2023-07-31T13:20:49;20.80;99.90
22192;DHT22;11261;52.456;10.850;2023-07-31T13:23:17;21.00;99.90
22192;DHT22;11261;52.456;10.850;2023-07-31T13:25:47;21.00;99.90
22192;DHT22;11261;52.456;10.850;2023-07-31T13:28:15;20.80;99.90
22192;DHT22;11261;52.456;10.850;2023-07-31T13:30:43;20.80;99.90
22192;DHT22;11261;52.456;10.850;2023-07-31T13:33:13;20.90;99.90
22192;DHT22;11261;52.456;10.850;2023-07-31T13:36:01;21.00;99.90
22192;DHT22;11261;52.456;10.850;2023-07-31T13:38:29;21.00;99.90
22192;DHT22;11261;52.456;10.850;2023-07-31T13:40:59;20.90;99.90
22192;DHT22;11261;52.456;10.850;2023-07-31T13:43:27;20.80;99.90
22192;DHT22;11261;52.456;10.850;2023-07-31T13:45:55;20.50;99.90
22192;DHT22;11261;52.456;10.850;2023-07-31T13:48:23;20.50;99.90
22192;DHT22;11261;52.456;10.850;2023-07-31T13:50:52;20.40;99.90
22192;DHT22;11261;52.456;10.850;2023-07-31T13:53:20;20.30;99.90
22192;DHT22;11261;52.456;10.850;2023-07-31T13:55:48;20.20;99.90
22192;DHT22;11261;52.456;10.850;2023-07-31T13:58:18;20.10;99.90
22192;DHT22;11261;52.456;10.850;2023-07-31T14:00:46;20.10;99.90
22192;DHT22;11261;52.456;10.850;2023-07-31T14:03:15;20.10;99.90
22192;DHT22;11261;52.456;10.850;2023-07-31T14:05:43;20.10;99.90
22192;DHT22;11261;52.456;10.850;2023-07-31T14:08:11;20.00;99.90
22192;DHT22;11261;52.456;10.850;2023-07-31T14:10:39;20.10;99.90
22192;DHT22;11261;52.456;10.850;2023-07-31T14:13:07;20.10;99.90
22192;DHT22;11261;52.456;10.850;2023-07-31T14:15:37;19.80;99.90
22192;DHT22;11261;52.456;10.850;2023-07-31T14:18:05;19.90;99.90
22192;DHT22;11261;52.456;10.850;2023-07-31T14:20:34;19.90;99.90
22192;DHT22;11261;52.456;10.850;2023-07-31T14:23:03;19.90;99.90
22192;DHT22;11261;52.456;10.850;2023-07-31T14:25:31;20.00;99.90
22192;DHT22;11261;52.456;10.850;2023-07-31T14:27:59;20.00;99.90
22192;DHT22;11261;52.456;10.850;2023-07-31T14:30:28;20.00;99.90
22192;DHT22;11261;52.456;10.850;2023-07-31T14:32:58;20.00;99.90
22192;DHT22;11261;52.456;10.850;2023-07-31T14:35:27;19.90;99.90
22192;DHT22;11261;52.456;10.850;2023-07-31T14:37:56;20.00;99.90
22192;DHT22;11261;52.456;10.850;2023-07-31T14:40:24;20.00;99.90
22192;DHT22;11261;52.456;10.850;2023-07-31T14:42:52;20.00;99.90
22192;DHT22;11261;52.456;10.850;2023-07-31T14:45:20;20.00;99.90
22192;DHT22;11261;52.456;10.850;2023-07-31T14:47:49;19.90;99.90
22192;DHT22;11261;52.456;10.850;2023-07-31T14:50:20;20.00;99.90
22192;DHT22;11261;52.456;10.850;2023-07-31T14:52:48;19.90;99.90
22192;DHT22;11261;52.456;10.850;2023-07-31T14:55:17;19.90;99.90
22192;DHT22;11261;52.456;10.850;2023-07-31T14:57:46;19.90;99.90
22192;DHT22;11261;52.456;10.850;2023-07-31T15:00:14;19.80;99.90
22192;DHT22;11261;52.456;10.850;2023-07-31T15:02:43;19.70;99.90
22192;DHT22;11261;52.456;10.850;2023-07-31T15:05:11;19.80;99.90
22192;DHT22;11261;52.456;10.850;2023-07-31T15:07:41;19.80;99.90
22192;DHT22;11261;52.456;10.850;2023-07-31T15:10:09;19.80;99.90
22192;DHT22;11261;52.456;10.850;2023-07-31T15:12:39;19.90;99.90
22192;DHT22;11261;52.456;10.850;2023-07-31T15:15:08;20.00;99.90
22192;DHT22;11261;52.456;10.850;2023-07-31T15:17:36;20.00;99.90
22192;DHT22;11261;52.456;10.850;2023-07-31T15:20:06;20.00;99.90
22192;DHT22;11261;52.456;10.850;2023-07-31T15:22:34;20.00;99.90
22192;DHT22;11261;52.456;10.850;2023-07-31T15:25:05;20.10;99.90
22192;DHT22;11261;52.456;10.850;2023-07-31T15:27:33;20.20;99.90
22192;DHT22;11261;52.456;10.850;2023-07-31T15:30:02;20.20;99.90
22192;DHT22;11261;52.456;10.850;2023-07-31T15:32:32;20.20;99.90